sensor_id;sensor_type;location;lat;lon;timestamp;temperature;humidity
68199;HTU21D;55021;51.554;17.044;2022-09-09T00:13:53;18.88;93.69
68199;HTU21D;55021;51.554;17.044;2022-09-09T00:29:04;18.78;92.27
68199;HTU21D;55021;51.554;17.044;2022-09-09T00:44:19;18.88;95.93
68199;HTU21D;55021;51.554;17.044;2022-09-09T00:59:29;19.00;92.77
68199;HTU21D;55021;51.554;17.044;2022-09-09T01:14:42;18.73;90.68
68199;HTU21D;55021;51.554;17.044;2022-09-09T01:29:47;18.54;91.34
68199;HTU21D;55021;51.554;17.044;2022-09-09T01:44:49;18.41;92.05
68199;HTU21D;55021;51.554;17.044;2022-09-09T02:00:01;18.17;96.49
68199;HTU21D;55021;51.554;17.044;2022-09-09T02:15:12;18.62;92.30
68199;HTU21D;55021;51.554;17.044;2022-09-09T02:30:19;18.30;90.76
68199;HTU21D;55021;51.554;17.044;2022-09-09T02:45:25;18.08;90.44
68199;HTU21D;55021;51.554;17.044;2022-09-09T03:00:28;18.02;91.94
68199;HTU21D;55021;51.554;17.044;2022-09-09T03:15:34;17.89;91.41
68199;HTU21D;55021;51.554;17.044;2022-09-09T03:30:37;17.47;90.73
68199;HTU21D;55021;51.554;17.044;2022-09-09T03:45:39;17.13;89.60
68199;HTU21D;55021;51.554;17.044;2022-09-09T04:00:42;16.79;90.44
68199;HTU21D;55021;51.554;17.044;2022-09-09T04:15:50;16.72;91.59
68199;HTU21D;55021;51.554;17.044;2022-09-09T04:30:53;16.82;90.92
68199;HTU21D;55021;51.554;17.044;2022-09-09T04:45:56;16.90;91.73
68199;HTU21D;55021;51.554;17.044;2022-09-09T05:01:10;17.38;90.65
68199;HTU21D;55021;51.554;17.044;2022-09-09T05:16:14;17.61;90.63
68199;HTU21D;55021;51.554;17.044;2022-09-09T05:31:19;17.84;91.15
68199;HTU21D;55021;51.554;17.044;2022-09-09T05:46:23;18.27;92.55
68199;HTU21D;55021;51.554;17.044;2022-09-09T06:01:28;18.70;92.90
68199;HTU21D;55021;51.554;17.044;2022-09-09T06:16:32;19.00;94.45
68199;HTU21D;55021;51.554;17.044;2022-09-09T06:31:36;19.39;93.76
68199;HTU21D;55021;51.554;17.044;2022-09-09T06:46:39;19.97;93.06
68199;HTU21D;55021;51.554;17.044;2022-09-09T07:01:42;20.48;93.45
68199;HTU21D;55021;51.554;17.044;2022-09-09T07:16:46;21.07;89.47
68199;HTU21D;55021;51.554;17.044;2022-09-09T07:31:48;20.96;87.08
68199;HTU21D;55021;51.554;17.044;2022-09-09T07:46:51;21.68;87.25
68199;HTU21D;55021;51.554;17.044;2022-09-09T08:01:54;21.43;87.31
68199;HTU21D;55021;51.554;17.044;2022-09-09T08:16:56;22.17;85.44
68199;HTU21D;55021;51.554;17.044;2022-09-09T08:31:59;22.79;75.04
68199;HTU21D;55021;51.554;17.044;2022-09-09T08:47:07;23.17;72.84
68199;HTU21D;55021;51.554;17.044;2022-09-09T09:02:17;23.22;68.87
68199;HTU21D;55021;51.554;17.044;2022-09-09T09:17:25;23.72;67.08
68199;HTU21D;55021;51.554;17.044;2022-09-09T09:32:32;24.49;63.99
68199;HTU21D;55021;51.554;17.044;2022-09-09T09:47:35;25.00;61.33
68199;HTU21D;55021;51.554;17.044;2022-09-09T10:02:40;24.64;62.24
68199;HTU21D;55021;51.554;17.044;2022-09-09T10:17:52;24.82;57.28
68199;HTU21D;55021;51.554;17.044;2022-09-09T10:33:03;25.18;56.84
68199;HTU21D;55021;51.554;17.044;2022-09-09T10:48:23;26.47;49.40
68199;HTU21D;55021;51.554;17.044;2022-09-09T11:03:31;26.16;48.98
68199;HTU21D;55021;51.554;17.044;2022-09-09T11:18:39;26.47;49.37
68199;HTU21D;55021;51.554;17.044;2022-09-09T11:33:59;26.67;45.99
68199;HTU21D;55021;51.554;17.044;2022-09-09T11:49:27;27.57;43.36
68199;HTU21D;55021;51.554;17.044;2022-09-09T12:04:35;26.91;44.37
68199;HTU21D;55021;51.554;17.044;2022-09-09T12:19:38;27.47;43.19
68199;HTU21D;55021;51.554;17.044;2022-09-09T12:34:42;27.65;43.87
68199;HTU21D;55021;51.554;17.044;2022-09-09T12:49:47;27.95;41.38
68199;HTU21D;55021;51.554;17.044;2022-09-09T13:04:52;28.23;41.61
68199;HTU21D;55021;51.554;17.044;2022-09-09T13:19:55;27.44;43.26
68199;HTU21D;55021;51.554;17.044;2022-09-09T13:35:00;27.25;43.10
68199;HTU21D;55021;51.554;17.044;2022-09-09T13:50:18;27.69;41.17
68199;HTU21D;55021;51.554;17.044;2022-09-09T14:05:21;26.87;44.33
68199;HTU21D;55021;51.554;17.044;2022-09-09T14:20:24;26.53;43.84
68199;HTU21D;55021;51.554;17.044;2022-09-09T14:35:27;27.12;43.24
68199;HTU21D;55021;51.554;17.044;2022-09-09T14:50:29;26.80;44.13
68199;HTU21D;55021;51.554;17.044;2022-09-09T15:05:32;26.62;46.78
68199;HTU21D;55021;51.554;17.044;2022-09-09T15:20:34;26.48;48.15
68199;HTU21D;55021;51.554;17.044;2022-09-09T15:35:36;26.23;51.19
68199;HTU21D;55021;51.554;17.044;2022-09-09T15:50:39;26.18;52.75
68199;HTU21D;55021;51.554;17.044;2022-09-09T16:05:41;25.96;53.88
68199;HTU21D;55021;51.554;17.044;2022-09-09T16:20:59;25.84;55.72
68199;HTU21D;55021;51.554;17.044;2022-09-09T16:36:06;25.43;59.28
68199;HTU21D;55021;51.554;17.044;2022-09-09T16:51:15;24.95;63.91
68199;HTU21D;55021;51.554;17.044;2022-09-09T17:06:18;24.25;64.35
68199;HTU21D;55021;51.554;17.044;2022-09-09T17:21:45;23.40;67.22
68199;HTU21D;55021;51.554;17.044;2022-09-09T17:36:48;23.00;69.74
68199;HTU21D;55021;51.554;17.044;2022-09-09T17:51:51;22.65;72.07
68199;HTU21D;55021;51.554;17.044;2022-09-09T18:06:54;21.77;77.53
68199;HTU21D;55021;51.554;17.044;2022-09-09T18:21:57;21.85;78.65
68199;HTU21D;55021;51.554;17.044;2022-09-09T18:36:59;21.28;79.36
68199;HTU21D;55021;51.554;17.044;2022-09-09T18:52:02;21.60;77.46
68199;HTU21D;55021;51.554;17.044;2022-09-09T19:07:05;21.54;77.89
68199;HTU21D;55021;51.554;17.044;2022-09-09T19:22:10;21.18;80.57
68199;HTU21D;55021;51.554;17.044;2022-09-09T19:37:13;21.58;75.47
68199;HTU21D;55021;51.554;17.044;2022-09-09T19:52:16;21.50;73.97
68199;HTU21D;55021;51.554;17.044;2022-09-09T20:07:19;21.63;73.15
68199;HTU21D;55021;51.554;17.044;2022-09-09T20:22:21;21.36;75.86
68199;HTU21D;55021;51.554;17.044;2022-09-09T20:37:24;21.59;73.05
68199;HTU21D;55021;51.554;17.044;2022-09-09T20:52:26;21.79;72.31
68199;HTU21D;55021;51.554;17.044;2022-09-09T21:07:29;21.81;74.41
68199;HTU21D;55021;51.554;17.044;2022-09-09T21:22:36;21.90;76.01
68199;HTU21D;55021;51.554;17.044;2022-09-09T21:37:39;21.74;77.55
68199;HTU21D;55021;51.554;17.044;2022-09-09T21:52:42;21.53;78.05
68199;HTU21D;55021;51.554;17.044;2022-09-09T22:07:44;21.06;80.24
68199;HTU21D;55021;51.554;17.044;2022-09-09T22:22:47;21.05;79.75
68199;HTU21D;55021;51.554;17.044;2022-09-09T22:37:49;21.10;77.51
68199;HTU21D;55021;51.554;17.044;2022-09-09T22:52:52;20.06;77.08
68199;HTU21D;55021;51.554;17.044;2022-09-09T23:07:55;19.61;82.92
68199;HTU21D;55021;51.554;17.044;2022-09-09T23:22:57;19.39;83.94
68199;HTU21D;55021;51.554;17.044;2022-09-09T23:37:59;19.35;88.64
68199;HTU21D;55021;51.554;17.044;2022-09-09T23:53:02;19.22;90.15
